createdAt,value
2022-11-27T00:01:45.896Z,103052.19
2022-11-27T00:04:50.597Z,103049.66
2022-11-27T00:07:55.328Z,103060.75
2022-11-27T00:11:08.144Z,103056.50
2022-11-27T00:14:17.795Z,103058.69
2022-11-27T00:17:22.606Z,103049.25
2022-11-27T00:20:29.737Z,103044.38
2022-11-27T00:23:36.040Z,103045.97
2022-11-27T00:26:40.749Z,103041.78
2022-11-27T00:29:46.849Z,103045.13
2022-11-27T00:32:51.465Z,103047.31
2022-11-27T00:35:56.540Z,103041.38
2022-11-27T00:39:01.496Z,103047.38
2022-11-27T00:42:06.840Z,103033.84
2022-11-27T00:45:13.948Z,103041.56
2022-11-27T00:48:18.685Z,103039.03
2022-11-27T00:51:24.459Z,103043.56
2022-11-27T00:54:29.146Z,103042.84
2022-11-27T00:57:33.802Z,103036.78
2022-11-27T01:00:39.846Z,103038.28
2022-11-27T01:03:44.548Z,103036.47
2022-11-27T01:06:49.222Z,103034.19
2022-11-27T01:09:53.946Z,103037.38
2022-11-27T01:12:58.630Z,103037.47
2022-11-27T01:16:08.484Z,103038.69
2022-11-27T01:19:15.132Z,103042.88
2022-11-27T01:22:19.770Z,103038.09
2022-11-27T01:25:27.027Z,103039.91
2022-11-27T01:28:32.380Z,103035.88
2022-11-27T01:31:38.554Z,103031.34
2022-11-27T01:34:43.448Z,103035.75
2022-11-27T01:37:48.086Z,103034.19
2022-11-27T01:40:59.125Z,103039.94
2022-11-27T01:44:25.352Z,103035.00
2022-11-27T01:47:38.557Z,103035.66
2022-11-27T01:50:43.811Z,103031.31
2022-11-27T01:53:48.820Z,103035.38
2022-11-27T01:56:57.546Z,103036.38
2022-11-27T02:00:02.705Z,103026.28
2022-11-27T02:03:18.681Z,103037.25
2022-11-27T02:06:23.424Z,103037.91
2022-11-27T02:09:28.450Z,103040.53
2022-11-27T02:12:44.336Z,103033.97
2022-11-27T02:15:54.590Z,103037.69
2022-11-27T02:19:14.809Z,103028.28
2022-11-27T02:22:33.220Z,103037.59
2022-11-27T02:25:50.549Z,103040.22
2022-11-27T02:29:03.629Z,103047.88
2022-11-27T02:32:12.793Z,103039.41
2022-11-27T02:35:21.652Z,103045.28
2022-11-27T02:38:30.060Z,103042.81
2022-11-27T02:41:41.781Z,103051.31
2022-11-27T02:44:53.727Z,103052.97
2022-11-27T02:47:59.229Z,103053.78
2022-11-27T02:51:04.805Z,103054.66
2022-11-27T02:54:12.515Z,103046.94
2022-11-27T02:57:18.192Z,103047.06
2022-11-27T03:00:24.485Z,103053.84
2022-11-27T03:03:34.285Z,103054.44
2022-11-27T03:06:43.450Z,103058.03
2022-11-27T03:09:50.777Z,103050.44
2022-11-27T03:12:55.418Z,103049.22
2022-11-27T03:16:10.408Z,103050.19
2022-11-27T03:19:21.055Z,103050.94
2022-11-27T03:22:26.825Z,103057.88
2022-11-27T03:25:31.541Z,103058.03
2022-11-27T03:28:36.298Z,103063.78
2022-11-27T03:31:42.557Z,103057.72
2022-11-27T03:34:48.321Z,103055.41
2022-11-27T03:37:53.516Z,103060.34
2022-11-27T03:41:05.905Z,103047.94
2022-11-27T03:44:22.101Z,103056.38
2022-11-27T03:47:42.559Z,103052.19
2022-11-27T03:51:02.340Z,103057.00
2022-11-27T03:54:15.149Z,103056.81
2022-11-27T03:57:23.849Z,103047.66
2022-11-27T04:00:30.112Z,103049.22
2022-11-27T04:03:36.949Z,103055.19
2022-11-27T04:06:41.667Z,103045.19
2022-11-27T04:09:46.549Z,103045.22
2022-11-27T04:12:51.215Z,103056.00
2022-11-27T04:15:55.984Z,103050.78
2022-11-27T04:19:02.017Z,103056.00
2022-11-27T04:22:06.948Z,103053.34
2022-11-27T04:25:13.048Z,103057.00
2022-11-27T04:28:18.177Z,103062.94
2022-11-27T04:31:22.855Z,103060.13
2022-11-27T04:34:29.170Z,103057.13
2022-11-27T04:37:33.965Z,103056.81
2022-11-27T04:40:38.640Z,103046.69
2022-11-27T04:43:43.288Z,103043.41
2022-11-27T04:46:47.987Z,103039.91
2022-11-27T04:49:54.080Z,103037.19
2022-11-27T04:53:00.354Z,103044.50
2022-11-27T04:56:05.583Z,103037.84
2022-11-27T04:59:12.528Z,103032.72
2022-11-27T05:02:17.233Z,103037.63
2022-11-27T05:05:23.260Z,103022.50
2022-11-27T05:08:29.841Z,103034.97
2022-11-27T05:11:34.934Z,103029.19
2022-11-27T05:14:39.949Z,103031.75
2022-11-27T05:17:44.673Z,103023.31
2022-11-27T05:20:58.593Z,103019.06
2022-11-27T05:24:03.570Z,103014.97
2022-11-27T05:27:08.279Z,103036.75
2022-11-27T05:30:13.804Z,103028.06
2022-11-27T05:33:20.288Z,103028.47
2022-11-27T05:36:26.844Z,103027.78
2022-11-27T05:39:31.625Z,103031.75
2022-11-27T05:42:36.265Z,103031.13
2022-11-27T05:45:40.881Z,103020.09
2022-11-27T05:48:45.739Z,103026.97
2022-11-27T05:51:52.083Z,103031.44
2022-11-27T05:54:57.056Z,103026.34
2022-11-27T05:58:01.720Z,103024.22
2022-11-27T06:01:08.017Z,103032.84
2022-11-27T06:04:12.866Z,103030.59
2022-11-27T06:07:19.285Z,103030.81
2022-11-27T06:10:23.972Z,103024.34
2022-11-27T06:13:28.890Z,103031.41
2022-11-27T06:16:33.725Z,103024.53
2022-11-27T06:19:38.527Z,103031.41
2022-11-27T06:22:45.034Z,103026.41
2022-11-27T06:25:49.859Z,103015.53
2022-11-27T06:28:56.405Z,103005.38
2022-11-27T06:32:01.169Z,103002.38
2022-11-27T06:35:07.146Z,103014.56
2022-11-27T06:38:15.082Z,103018.19
2022-11-27T06:41:21.611Z,103015.72
2022-11-27T06:44:26.446Z,103021.81
2022-11-27T06:47:31.082Z,103021.47
2022-11-27T06:50:35.914Z,103024.03
2022-11-27T06:53:42.628Z,103021.81
2022-11-27T06:56:47.774Z,103024.44
2022-11-27T06:59:52.515Z,103022.50
2022-11-27T07:02:57.349Z,103037.19
2022-11-27T07:06:03.042Z,103023.00
2022-11-27T07:09:09.811Z,103018.53
2022-11-27T07:12:14.481Z,103015.03
2022-11-27T07:15:19.420Z,103012.59
2022-11-27T07:18:24.270Z,103009.25
2022-11-27T07:21:29.221Z,103008.88
2022-11-27T07:24:35.689Z,102991.41
2022-11-27T07:27:40.388Z,103002.59
2022-11-27T07:30:45.091Z,102999.03
2022-11-27T07:33:51.859Z,102993.28
2022-11-27T07:36:56.520Z,102998.44
2022-11-27T07:40:03.594Z,102997.72
2022-11-27T07:43:08.694Z,102992.84
2022-11-27T07:46:17.630Z,102992.38
2022-11-27T07:49:22.494Z,102987.22
2022-11-27T07:52:27.555Z,102979.78
2022-11-27T07:55:33.679Z,102986.66
2022-11-27T07:58:38.513Z,102998.34
2022-11-27T08:01:44.809Z,102994.09
2022-11-27T08:04:50.000Z,102996.09
2022-11-27T08:07:54.902Z,103000.50
2022-11-27T08:11:00.931Z,102997.06
2022-11-27T08:14:08.028Z,102992.97
2022-11-27T08:17:14.388Z,102986.34
2022-11-27T08:20:19.862Z,102983.66
2022-11-27T08:23:24.558Z,102981.13
2022-11-27T08:26:30.592Z,102981.13
2022-11-27T08:29:35.405Z,102999.44
2022-11-27T08:32:40.697Z,102997.91
2022-11-27T08:35:49.986Z,102989.56
2022-11-27T08:38:55.700Z,102994.78
2022-11-27T08:42:02.310Z,102996.72
2022-11-27T08:45:08.408Z,102990.91
2022-11-27T08:48:14.470Z,102996.94
2022-11-27T08:51:19.218Z,102984.44
2022-11-27T08:54:24.214Z,102989.28
2022-11-27T08:57:30.317Z,102980.72
2022-11-27T09:00:36.131Z,102988.88
2022-11-27T09:03:40.982Z,102992.16
2022-11-27T09:06:46.125Z,102985.94
2022-11-27T09:09:50.808Z,102988.00
2022-11-27T09:12:59.423Z,102985.41
2022-11-27T09:16:04.681Z,102986.22
2022-11-27T09:19:09.392Z,102977.97
2022-11-27T09:22:14.113Z,102990.41
2022-11-27T09:25:18.915Z,102979.63
2022-11-27T09:28:29.893Z,102989.56
2022-11-27T09:31:36.401Z,102997.06
2022-11-27T09:34:41.383Z,102998.50
2022-11-27T09:37:46.100Z,103001.03
2022-11-27T09:40:53.293Z,103006.94
2022-11-27T09:44:04.533Z,103018.84
2022-11-27T09:47:21.122Z,103015.00
2022-11-27T09:50:29.017Z,103016.25
2022-11-27T09:53:41.058Z,103015.16
2022-11-27T09:56:51.910Z,103010.63
2022-11-27T10:00:01.301Z,103002.13
2022-11-27T10:03:09.860Z,103006.56
2022-11-27T10:06:26.200Z,103009.06
2022-11-27T10:09:43.440Z,103001.66
2022-11-27T10:13:00.967Z,103006.91
2022-11-27T10:16:14.945Z,103001.91
2022-11-27T10:19:31.617Z,103006.16
2022-11-27T10:22:45.372Z,103001.25
2022-11-27T10:25:51.932Z,103004.69
2022-11-27T10:29:02.202Z,103000.44
2022-11-27T10:32:46.801Z,102993.44
2022-11-27T10:35:49.802Z,102997.19
2022-11-27T10:38:55.980Z,102994.69
2022-11-27T10:42:07.500Z,102992.09
2022-11-27T10:45:23.484Z,102975.09
2022-11-27T10:48:29.796Z,102987.13
2022-11-27T10:51:37.876Z,102977.09
2022-11-27T10:54:43.696Z,102984.88
2022-11-27T10:57:59.249Z,102981.22
2022-11-27T11:01:07.093Z,102977.84
2022-11-27T11:04:36.533Z,102980.25
2022-11-27T11:07:42.433Z,102981.75
2022-11-27T11:10:54.280Z,102977.69
2022-11-27T11:13:59.597Z,102992.72
2022-11-27T11:17:18.111Z,102989.44
2022-11-27T11:20:26.378Z,102990.59
2022-11-27T11:23:37.451Z,102998.13
2022-11-27T11:26:46.314Z,102988.03
2022-11-27T11:29:52.753Z,102992.41
2022-11-27T11:33:02.929Z,102981.50
2022-11-27T11:36:13.298Z,102992.31
2022-11-27T11:39:24.493Z,102985.75
2022-11-27T11:42:31.772Z,102979.91
2022-11-27T11:45:46.055Z,102984.94
2022-11-27T11:49:03.094Z,102980.69
2022-11-27T11:52:22.029Z,102969.00
2022-11-27T11:55:32.757Z,102974.75
2022-11-27T11:58:52.569Z,102970.84
2022-11-27T12:02:39.049Z,102975.38
2022-11-27T12:06:02.572Z,102966.16
2022-11-27T12:09:39.090Z,102956.78
2022-11-27T12:12:56.161Z,102957.63
2022-11-27T12:16:07.656Z,102963.47
2022-11-27T12:19:44.441Z,102959.31
2022-11-27T12:23:36.978Z,102966.88
2022-11-27T12:26:57.589Z,102966.00
2022-11-27T12:30:12.965Z,102966.88
2022-11-27T12:33:55.109Z,102982.03
2022-11-27T12:37:16.169Z,102964.25
2022-11-27T12:40:39.026Z,102962.34
2022-11-27T12:43:46.805Z,102957.94
2022-11-27T12:46:58.731Z,102959.47
2022-11-27T12:50:09.439Z,102964.97
2022-11-27T12:53:24.556Z,102949.44
2022-11-27T12:56:34.410Z,102944.78
2022-11-27T12:59:45.081Z,102951.69
2022-11-27T13:03:01.202Z,102950.19
2022-11-27T13:06:10.156Z,102944.28
2022-11-27T13:09:21.318Z,102946.13
2022-11-27T13:12:32.753Z,102935.25
2022-11-27T13:15:44.201Z,102933.72
2022-11-27T13:18:53.398Z,102936.00
2022-11-27T13:21:59.923Z,102929.84
2022-11-27T13:25:05.358Z,102926.31
2022-11-27T13:28:23.417Z,102922.19
2022-11-27T13:31:32.955Z,102921.22
2022-11-27T13:34:44.825Z,102927.13
2022-11-27T13:37:55.203Z,102924.72
2022-11-27T13:41:05.522Z,102922.84
2022-11-27T13:44:24.627Z,102922.25
2022-11-27T13:47:37.069Z,102922.00
2022-11-27T13:50:45.356Z,102924.50
2022-11-27T13:53:50.269Z,102913.53
2022-11-27T13:56:54.930Z,102916.50
2022-11-27T14:00:02.109Z,102917.97
2022-11-27T14:03:12.388Z,102918.22
2022-11-27T14:06:26.077Z,102913.88
2022-11-27T14:09:38.251Z,102912.00
2022-11-27T14:12:43.812Z,102906.91
2022-11-27T14:16:01.683Z,102909.38
2022-11-27T14:19:33.256Z,102912.72
2022-11-27T14:23:12.454Z,102908.47
2022-11-27T14:26:24.163Z,102921.06
2022-11-27T14:29:31.749Z,102917.53
2022-11-27T14:32:37.229Z,102919.50
2022-11-27T14:35:43.233Z,102908.31
2022-11-27T14:38:49.382Z,102909.22
2022-11-27T14:42:05.740Z,102916.94
2022-11-27T14:45:16.460Z,102908.63
2022-11-27T14:48:23.339Z,102912.66
2022-11-27T14:51:31.270Z,102917.94
2022-11-27T14:54:39.132Z,102908.53
2022-11-27T14:57:45.136Z,102915.25
2022-11-27T15:00:56.783Z,102910.38
2022-11-27T15:04:03.848Z,102912.06
2022-11-27T15:07:17.497Z,102914.53
2022-11-27T15:10:32.653Z,102915.34
2022-11-27T15:13:38.701Z,102913.63
2022-11-27T15:16:47.631Z,102921.22
2022-11-27T15:19:52.701Z,102906.22
2022-11-27T15:23:00.092Z,102914.44
2022-11-27T15:26:16.100Z,102917.25
2022-11-27T15:29:36.195Z,102908.09
2022-11-27T15:32:51.505Z,102916.44
2022-11-27T15:36:14.138Z,102913.25
2022-11-27T15:39:25.770Z,102903.09
2022-11-27T15:42:30.705Z,102911.44
2022-11-27T15:45:35.671Z,102904.81
2022-11-27T15:48:40.421Z,102909.81
2022-11-27T15:51:45.160Z,102911.53
2022-11-27T15:54:51.823Z,102906.31
2022-11-27T15:57:56.520Z,102894.59
2022-11-27T16:01:01.346Z,102896.31
2022-11-27T16:04:06.561Z,102904.94
2022-11-27T16:07:12.440Z,102914.97
2022-11-27T16:10:18.709Z,102904.19
2022-11-27T16:13:23.434Z,102905.84
2022-11-27T16:16:28.162Z,102905.81
2022-11-27T16:19:33.069Z,102908.34
2022-11-27T16:22:37.923Z,102905.91
2022-11-27T16:25:43.986Z,102907.66
2022-11-27T16:28:49.100Z,102908.97
2022-11-27T16:31:54.400Z,102898.84
2022-11-27T16:35:00.791Z,102898.78
2022-11-27T16:38:06.111Z,102900.66
2022-11-27T16:41:18.078Z,102892.44
2022-11-27T16:44:22.792Z,102887.38
2022-11-27T16:47:33.350Z,102887.47
2022-11-27T16:50:38.957Z,102890.00
2022-11-27T16:53:46.638Z,102889.94
2022-11-27T16:56:52.872Z,102882.34
2022-11-27T16:59:58.018Z,102887.28
2022-11-27T17:03:03.349Z,102887.38
2022-11-27T17:06:10.161Z,102888.38
2022-11-27T17:09:15.900Z,102875.81
2022-11-27T17:12:22.029Z,102891.81
2022-11-27T17:15:26.877Z,102882.41
2022-11-27T17:18:31.589Z,102884.94
2022-11-27T17:21:36.910Z,102882.34
2022-11-27T17:24:41.726Z,102890.38
2022-11-27T17:27:49.072Z,102892.16
2022-11-27T17:30:55.481Z,102891.28
2022-11-27T17:34:00.587Z,102895.59
2022-11-27T17:37:05.857Z,102879.88
2022-11-27T17:40:13.715Z,102878.19
2022-11-27T17:43:19.677Z,102881.25
2022-11-27T17:46:27.101Z,102887.94
2022-11-27T17:49:32.585Z,102883.75
2022-11-27T17:52:38.108Z,102889.56
2022-11-27T17:55:42.871Z,102885.66
2022-11-27T17:58:49.055Z,102882.16
2022-11-27T18:01:54.269Z,102886.69
2022-11-27T18:04:59.410Z,102876.97
2022-11-27T18:08:04.438Z,102871.38
2022-11-27T18:11:11.516Z,102871.47
2022-11-27T18:14:18.409Z,102872.22
2022-11-27T18:17:23.168Z,102878.00
2022-11-27T18:20:28.861Z,102877.72
2022-11-27T18:23:33.529Z,102884.50
2022-11-27T18:27:07.062Z,102887.19
2022-11-27T18:30:05.384Z,102882.13
2022-11-27T18:33:12.542Z,102891.56
2022-11-27T18:36:18.713Z,102887.41
2022-11-27T18:39:23.764Z,102901.47
2022-11-27T18:42:30.318Z,102902.50
2022-11-27T18:45:36.452Z,102899.03
2022-11-27T18:48:41.768Z,102903.13
2022-11-27T18:51:46.945Z,102899.88
2022-11-27T18:54:51.668Z,102908.81
2022-11-27T18:57:56.509Z,102907.47
2022-11-27T19:01:03.707Z,102901.25
2022-11-27T19:04:09.281Z,102898.25
2022-11-27T19:07:14.142Z,102907.63
2022-11-27T19:10:19.017Z,102896.44
2022-11-27T19:13:23.777Z,102891.34
2022-11-27T19:16:33.137Z,102898.06
2022-11-27T19:19:55.487Z,102893.78
2022-11-27T19:23:00.349Z,102904.13
2022-11-27T19:26:09.905Z,102903.22
2022-11-27T19:29:16.913Z,102901.56
2022-11-27T19:32:23.066Z,102900.75
2022-11-27T19:35:28.632Z,102908.69
2022-11-27T19:38:33.788Z,102910.16
2022-11-27T19:41:38.552Z,102901.03
2022-11-27T19:44:43.631Z,102897.78
2022-11-27T19:47:50.119Z,102896.13
2022-11-27T19:50:55.689Z,102896.16
2022-11-27T19:54:05.678Z,102891.91
2022-11-27T19:57:13.639Z,102886.75
2022-11-27T20:00:19.711Z,102890.88
2022-11-27T20:03:25.770Z,102891.72
2022-11-27T20:06:30.920Z,102891.56
2022-11-27T20:09:35.731Z,102901.00
2022-11-27T20:12:41.364Z,102897.59
2022-11-27T20:15:46.265Z,102901.13
2022-11-27T20:18:53.260Z,102890.38
2022-11-27T20:21:58.181Z,102892.03
2022-11-27T20:25:18.860Z,102892.84
2022-11-27T20:28:25.920Z,102881.06
2022-11-27T20:31:35.844Z,102882.78
2022-11-27T20:34:42.782Z,102882.59
2022-11-27T20:37:47.828Z,102885.31
2022-11-27T20:40:52.849Z,102882.06
2022-11-27T20:44:01.032Z,102875.25
2022-11-27T20:47:08.069Z,102871.94
2022-11-27T20:50:15.109Z,102875.41
2022-11-27T20:53:20.110Z,102886.34
2022-11-27T20:56:25.172Z,102884.69
2022-11-27T20:59:29.896Z,102877.03
2022-11-27T21:02:36.706Z,102874.72
2022-11-27T21:05:44.259Z,102889.88
2022-11-27T21:08:49.992Z,102889.88
2022-11-27T21:11:55.160Z,102888.34
2022-11-27T21:15:00.347Z,102889.19
2022-11-27T21:18:06.114Z,102891.78
2022-11-27T21:21:14.517Z,102884.03
2022-11-27T21:24:20.050Z,102879.16
2022-11-27T21:27:25.294Z,102885.00
2022-11-27T21:30:30.981Z,102872.56
2022-11-27T21:33:36.536Z,102875.72
2022-11-27T21:36:42.624Z,102873.25
2022-11-27T21:39:48.136Z,102879.22
2022-11-27T21:42:53.192Z,102884.19
2022-11-27T21:45:58.460Z,102887.56
2022-11-27T21:49:03.389Z,102888.47
2022-11-27T21:52:09.433Z,102882.69
2022-11-27T21:55:14.472Z,102879.34
2022-11-27T21:58:19.772Z,102892.91
2022-11-27T22:01:26.748Z,102893.72
2022-11-27T22:04:31.424Z,102898.78
2022-11-27T22:07:37.745Z,102892.66
2022-11-27T22:10:42.733Z,102898.06
2022-11-27T22:13:47.758Z,102888.84
2022-11-27T22:16:52.666Z,102900.81
2022-11-27T22:19:58.699Z,102904.13
2022-11-27T22:23:04.808Z,102905.00
2022-11-27T22:26:13.059Z,102893.22
2022-11-27T22:29:18.345Z,102902.47
2022-11-27T22:32:22.998Z,102899.84
2022-11-27T22:35:27.978Z,102904.88
2022-11-27T22:38:34.065Z,102896.56
2022-11-27T22:41:40.620Z,102890.72
2022-11-27T22:44:46.531Z,102896.63
2022-11-27T22:47:51.302Z,102878.75
2022-11-27T22:50:57.391Z,102883.84
2022-11-27T22:54:06.745Z,102873.94
2022-11-27T22:57:13.980Z,102888.97
2022-11-27T23:00:19.545Z,102880.69
2022-11-27T23:03:24.415Z,102887.47
2022-11-27T23:06:29.769Z,102880.75
2022-11-27T23:09:36.182Z,102890.19
2022-11-27T23:12:41.154Z,102895.03
2022-11-27T23:15:46.330Z,102903.44
2022-11-27T23:18:51.512Z,102894.13
2022-11-27T23:21:56.152Z,102886.41
2022-11-27T23:25:02.344Z,102894.94
2022-11-27T23:28:07.429Z,102892.28
2022-11-27T23:31:29.534Z,102885.78
2022-11-27T23:34:35.253Z,102889.88
2022-11-27T23:37:40.053Z,102892.44
2022-11-27T23:40:46.121Z,102885.75
2022-11-27T23:43:51.516Z,102904.13
2022-11-27T23:46:56.149Z,102911.69
2022-11-27T23:50:01.423Z,102901.59
2022-11-27T23:53:06.170Z,102905.84
2022-11-27T23:56:17.359Z,102901.56
2022-11-27T23:59:21.973Z,102908.34
